sensor_id;sensor_type;location;lat;lon;timestamp;pressure;altitude;pressure_sealevel;temperature;humidity
5996;BME280;3026;53.612;7.278;2023-05-19T00:01:21;102880.09;;;8.30;100.00
5996;BME280;3026;53.612;7.278;2023-05-19T00:03:50;102875.53;;;8.31;100.00
5996;BME280;3026;53.612;7.278;2023-05-19T00:06:21;102868.25;;;8.31;100.00
5996;BME280;3026;53.612;7.278;2023-05-19T00:08:53;102873.56;;;8.33;100.00
5996;BME280;3026;53.612;7.278;2023-05-19T00:11:22;102864.78;;;8.29;100.00
5996;BME280;3026;53.612;7.278;2023-05-19T00:13:50;102874.56;;;8.32;100.00
5996;BME280;3026;53.612;7.278;2023-05-19T00:16:20;102862.94;;;8.30;100.00
5996;BME280;3026;53.612;7.278;2023-05-19T00:18:47;102871.09;;;8.30;100.00
5996;BME280;3026;53.612;7.278;2023-05-19T00:21:14;102862.06;;;8.29;100.00
5996;BME280;3026;53.612;7.278;2023-05-19T00:23:41;102874.03;;;8.27;100.00
5996;BME280;3026;53.612;7.278;2023-05-19T00:26:08;102863.16;;;8.27;100.00
5996;BME280;3026;53.612;7.278;2023-05-19T00:28:35;102870.31;;;8.28;100.00
5996;BME280;3026;53.612;7.278;2023-05-19T00:31:02;102867.50;;;8.29;100.00
5996;BME280;3026;53.612;7.278;2023-05-19T00:33:31;102860.31;;;8.28;100.00
5996;BME280;3026;53.612;7.278;2023-05-19T00:35:59;102860.22;;;8.30;100.00
5996;BME280;3026;53.612;7.278;2023-05-19T00:38:27;102856.50;;;8.31;100.00
5996;BME280;3026;53.612;7.278;2023-05-19T00:40:54;102851.81;;;8.33;100.00
5996;BME280;3026;53.612;7.278;2023-05-19T00:43:20;102840.97;;;8.33;100.00
5996;BME280;3026;53.612;7.278;2023-05-19T00:45:47;102837.28;;;8.34;100.00
5996;BME280;3026;53.612;7.278;2023-05-19T00:48:14;102842.66;;;8.35;100.00
5996;BME280;3026;53.612;7.278;2023-05-19T00:50:43;102838.19;;;8.34;100.00
5996;BME280;3026;53.612;7.278;2023-05-19T00:53:10;102843.69;;;8.33;100.00
5996;BME280;3026;53.612;7.278;2023-05-19T00:55:38;102832.91;;;8.31;100.00
5996;BME280;3026;53.612;7.278;2023-05-19T00:58:06;102829.44;;;8.29;100.00
5996;BME280;3026;53.612;7.278;2023-05-19T01:00:35;102829.44;;;8.29;100.00
5996;BME280;3026;53.612;7.278;2023-05-19T01:03:03;102823.38;;;8.26;100.00
5996;BME280;3026;53.612;7.278;2023-05-19T01:05:36;102827.06;;;8.25;100.00
5996;BME280;3026;53.612;7.278;2023-05-19T01:08:04;102830.75;;;8.24;100.00
5996;BME280;3026;53.612;7.278;2023-05-19T01:10:32;102833.47;;;8.24;100.00
5996;BME280;3026;53.612;7.278;2023-05-19T01:12:59;102807.72;;;8.16;100.00
5996;BME280;3026;53.612;7.278;2023-05-19T01:15:26;102820.31;;;8.17;100.00
5996;BME280;3026;53.612;7.278;2023-05-19T01:18:00;102816.63;;;8.18;100.00
5996;BME280;3026;53.612;7.278;2023-05-19T01:20:34;102821.19;;;8.18;100.00
5996;BME280;3026;53.612;7.278;2023-05-19T01:23:27;102806.84;;;8.16;100.00
5996;BME280;3026;53.612;7.278;2023-05-19T01:29:15;102811.41;;;8.15;100.00
5996;BME280;3026;53.612;7.278;2023-05-19T01:31:53;102821.41;;;8.15;100.00
5996;BME280;3026;53.612;7.278;2023-05-19T01:34:22;102822.28;;;8.15;100.00
5996;BME280;3026;53.612;7.278;2023-05-19T01:36:53;102815.09;;;8.14;100.00
5996;BME280;3026;53.612;7.278;2023-05-19T01:39:21;102812.28;;;8.16;100.00
5996;BME280;3026;53.612;7.278;2023-05-19T01:41:49;102813.38;;;8.13;100.00
5996;BME280;3026;53.612;7.278;2023-05-19T01:44:16;102806.19;;;8.12;100.00
5996;BME280;3026;53.612;7.278;2023-05-19T01:46:46;102812.63;;;8.11;100.00
5996;BME280;3026;53.612;7.278;2023-05-19T01:49:15;102815.34;;;8.11;100.00
5996;BME280;3026;53.612;7.278;2023-05-19T01:51:42;102808.34;;;8.07;100.00
5996;BME280;3026;53.612;7.278;2023-05-19T01:54:08;102813.78;;;8.07;100.00
5996;BME280;3026;53.612;7.278;2023-05-19T01:56:40;102811.06;;;8.07;100.00
5996;BME280;3026;53.612;7.278;2023-05-19T01:59:20;102818.25;;;8.08;100.00
5996;BME280;3026;53.612;7.278;2023-05-19T02:01:52;102826.38;;;8.08;100.00
5996;BME280;3026;53.612;7.278;2023-05-19T02:04:27;102804.78;;;8.07;100.00
5996;BME280;3026;53.612;7.278;2023-05-19T02:07:00;102812.28;;;8.03;100.00
5996;BME280;3026;53.612;7.278;2023-05-19T02:09:36;102806.63;;;8.06;100.00
5996;BME280;3026;53.612;7.278;2023-05-19T02:12:10;102797.72;;;8.04;100.00
5996;BME280;3026;53.612;7.278;2023-05-19T02:14:40;102794.88;;;8.06;100.00
5996;BME280;3026;53.612;7.278;2023-05-19T02:17:10;102799.44;;;8.05;100.00
5996;BME280;3026;53.612;7.278;2023-05-19T02:19:42;102795.00;;;8.04;100.00
5996;BME280;3026;53.612;7.278;2023-05-19T02:22:09;102797.72;;;8.04;100.00
5996;BME280;3026;53.612;7.278;2023-05-19T02:24:35;102792.28;;;8.04;100.00
5996;BME280;3026;53.612;7.278;2023-05-19T02:27:04;102799.44;;;8.05;100.00
5996;BME280;3026;53.612;7.278;2023-05-19T02:29:31;102791.41;;;8.04;100.00
5996;BME280;3026;53.612;7.278;2023-05-19T02:31:59;102792.28;;;8.04;100.00
5996;BME280;3026;53.612;7.278;2023-05-19T02:34:26;102786.19;;;8.01;100.00
5996;BME280;3026;53.612;7.278;2023-05-19T02:36:54;102788.81;;;8.02;100.00
5996;BME280;3026;53.612;7.278;2023-05-19T02:39:22;102783.59;;;7.99;100.00
5996;BME280;3026;53.612;7.278;2023-05-19T02:41:48;102779.97;;;7.99;100.00
5996;BME280;3026;53.612;7.278;2023-05-19T02:44:16;102787.25;;;7.98;100.00
5996;BME280;3026;53.612;7.278;2023-05-19T02:46:42;102780.09;;;7.97;100.00
5996;BME280;3026;53.612;7.278;2023-05-19T02:49:09;102783.78;;;7.96;100.00
5996;BME280;3026;53.612;7.278;2023-05-19T02:51:36;102780.31;;;7.94;100.00
5996;BME280;3026;53.612;7.278;2023-05-19T02:54:04;102785.00;;;7.92;100.00
5996;BME280;3026;53.612;7.278;2023-05-19T02:56:31;102776.84;;;7.92;100.00
5996;BME280;3026;53.612;7.278;2023-05-19T02:58:58;102775.88;;;7.93;100.00
5996;BME280;3026;53.612;7.278;2023-05-19T03:01:25;102781.53;;;7.90;100.00
5996;BME280;3026;53.612;7.278;2023-05-19T03:03:52;102783.25;;;7.91;100.00
5996;BME280;3026;53.612;7.278;2023-05-19T03:06:18;102780.66;;;7.89;100.00
5996;BME280;3026;53.612;7.278;2023-05-19T03:08:47;102769.91;;;7.88;100.00
5996;BME280;3026;53.612;7.278;2023-05-19T03:11:15;102772.50;;;7.89;100.00
5996;BME280;3026;53.612;7.278;2023-05-19T03:13:42;102760.78;;;7.89;100.00
5996;BME280;3026;53.612;7.278;2023-05-19T03:16:09;102770.78;;;7.88;100.00
5996;BME280;3026;53.612;7.278;2023-05-19T03:18:37;102757.50;;;7.84;100.00
5996;BME280;3026;53.612;7.278;2023-05-19T03:21:03;102768.13;;;7.87;100.00
5996;BME280;3026;53.612;7.278;2023-05-19T03:23:30;102772.69;;;7.86;100.00
5996;BME280;3026;53.612;7.278;2023-05-19T03:25:57;102762.69;;;7.87;100.00
5996;BME280;3026;53.612;7.278;2023-05-19T03:28:25;102773.56;;;7.87;100.00
5996;BME280;3026;53.612;7.278;2023-05-19T03:30:53;102777.25;;;7.86;100.00
5996;BME280;3026;53.612;7.278;2023-05-19T03:33:20;102779.22;;;7.84;100.00
5996;BME280;3026;53.612;7.278;2023-05-19T03:35:48;102777.50;;;7.83;100.00
5996;BME280;3026;53.612;7.278;2023-05-19T03:38:15;102774.00;;;7.81;100.00
5996;BME280;3026;53.612;7.278;2023-05-19T03:40:41;102767.06;;;7.77;100.00
5996;BME280;3026;53.612;7.278;2023-05-19T03:43:09;102774.00;;;7.81;100.00
5996;BME280;3026;53.612;7.278;2023-05-19T03:45:37;102776.72;;;7.81;100.00
5996;BME280;3026;53.612;7.278;2023-05-19T03:48:05;102775.00;;;7.80;100.00
5996;BME280;3026;53.612;7.278;2023-05-19T03:50:31;102760.84;;;7.75;100.00
5996;BME280;3026;53.612;7.278;2023-05-19T03:52:58;102774.00;;;7.81;100.00
5996;BME280;3026;53.612;7.278;2023-05-19T03:55:25;102774.25;;;7.78;100.00
5996;BME280;3026;53.612;7.278;2023-05-19T03:57:54;102783.16;;;7.80;100.00
5996;BME280;3026;53.612;7.278;2023-05-19T04:00:21;102777.72;;;7.80;100.00
5996;BME280;3026;53.612;7.278;2023-05-19T04:02:49;102775.97;;;7.79;100.00
5996;BME280;3026;53.612;7.278;2023-05-19T04:05:16;102775.97;;;7.79;100.00
5996;BME280;3026;53.612;7.278;2023-05-19T04:07:43;102776.84;;;7.79;100.00
5996;BME280;3026;53.612;7.278;2023-05-19T04:10:11;102783.16;;;7.80;100.00
5996;BME280;3026;53.612;7.278;2023-05-19T04:12:38;102775.22;;;7.77;100.00
5996;BME280;3026;53.612;7.278;2023-05-19T04:15:06;102778.69;;;7.79;100.00
5996;BME280;3026;53.612;7.278;2023-05-19T04:17:36;102780.31;;;7.81;100.00
5996;BME280;3026;53.612;7.278;2023-05-19T04:20:05;102781.19;;;7.82;100.00
5996;BME280;3026;53.612;7.278;2023-05-19T04:22:32;102788.34;;;7.83;100.00
5996;BME280;3026;53.612;7.278;2023-05-19T04:24:59;102788.25;;;7.84;100.00
5996;BME280;3026;53.612;7.278;2023-05-19T04:27:26;102798.25;;;7.84;100.00
5996;BME280;3026;53.612;7.278;2023-05-19T04:29:54;102795.28;;;7.87;100.00
5996;BME280;3026;53.612;7.278;2023-05-19T04:32:22;102794.44;;;7.86;100.00
5996;BME280;3026;53.612;7.278;2023-05-19T04:34:49;102799.00;;;7.86;100.00
5996;BME280;3026;53.612;7.278;2023-05-19T04:37:18;102794.34;;;7.88;100.00
5996;BME280;3026;53.612;7.278;2023-05-19T04:39:45;102791.81;;;7.85;100.00
5996;BME280;3026;53.612;7.278;2023-05-19T04:42:12;102793.38;;;7.89;100.00
5996;BME280;3026;53.612;7.278;2023-05-19T04:44:43;102796.63;;;7.94;100.00
5996;BME280;3026;53.612;7.278;2023-05-19T04:47:10;102800.09;;;7.96;100.00
5996;BME280;3026;53.612;7.278;2023-05-19T04:49:37;102794.47;;;7.99;100.00
5996;BME280;3026;53.612;7.278;2023-05-19T04:52:06;102795.97;;;8.03;100.00
5996;BME280;3026;53.612;7.278;2023-05-19T04:54:37;102792.16;;;8.06;100.00
5996;BME280;3026;53.612;7.278;2023-05-19T04:57:04;102792.91;;;8.08;100.00
5996;BME280;3026;53.612;7.278;2023-05-19T04:59:31;102792.63;;;8.12;100.00
5996;BME280;3026;53.612;7.278;2023-05-19T05:01:58;102792.38;;;8.15;100.00
5996;BME280;3026;53.612;7.278;2023-05-19T05:04:25;102791.19;;;8.19;100.00
5996;BME280;3026;53.612;7.278;2023-05-19T05:06:51;102793.47;;;8.26;100.00
5996;BME280;3026;53.612;7.278;2023-05-19T05:09:18;102793.13;;;8.30;100.00
5996;BME280;3026;53.612;7.278;2023-05-19T05:11:47;102794.59;;;8.36;100.00
5996;BME280;3026;53.612;7.278;2023-05-19T05:14:14;102795.09;;;8.41;100.00
5996;BME280;3026;53.612;7.278;2023-05-19T05:16:41;102800.13;;;8.47;100.00
5996;BME280;3026;53.612;7.278;2023-05-19T05:19:09;102793.34;;;8.53;100.00
5996;BME280;3026;53.612;7.278;2023-05-19T05:21:37;102791.56;;;8.64;100.00
5996;BME280;3026;53.612;7.278;2023-05-19T05:24:04;102795.88;;;8.80;100.00
5996;BME280;3026;53.612;7.278;2023-05-19T05:26:32;102794.00;;;8.93;100.00
5996;BME280;3026;53.612;7.278;2023-05-19T05:29:01;102795.81;;;9.05;100.00
5996;BME280;3026;53.612;7.278;2023-05-19T05:31:27;102795.09;;;9.14;100.00
5996;BME280;3026;53.612;7.278;2023-05-19T05:33:54;102796.13;;;9.24;100.00
5996;BME280;3026;53.612;7.278;2023-05-19T05:36:21;102799.16;;;9.32;100.00
5996;BME280;3026;53.612;7.278;2023-05-19T05:38:48;102798.47;;;9.42;100.00
5996;BME280;3026;53.612;7.278;2023-05-19T05:41:15;102799.69;;;9.49;100.00
5996;BME280;3026;53.612;7.278;2023-05-19T05:43:42;102800.00;;;9.57;100.00
5996;BME280;3026;53.612;7.278;2023-05-19T05:46:10;102803.75;;;9.67;100.00
5996;BME280;3026;53.612;7.278;2023-05-19T05:48:37;102806.75;;;9.75;100.00
5996;BME280;3026;53.612;7.278;2023-05-19T05:51:07;102806.03;;;9.84;100.00
5996;BME280;3026;53.612;7.278;2023-05-19T05:53:37;102807.03;;;9.94;100.00
5996;BME280;3026;53.612;7.278;2023-05-19T05:56:06;102802.09;;;10.00;100.00
5996;BME280;3026;53.612;7.278;2023-05-19T05:58:33;102804.97;;;10.09;100.00
5996;BME280;3026;53.612;7.278;2023-05-19T06:01:02;102805.19;;;10.17;100.00
5996;BME280;3026;53.612;7.278;2023-05-19T06:03:31;102805.50;;;10.26;100.00
5996;BME280;3026;53.612;7.278;2023-05-19T06:05:57;102814.94;;;10.33;100.00
5996;BME280;3026;53.612;7.278;2023-05-19T06:08:24;102814.56;;;10.37;100.00
5996;BME280;3026;53.612;7.278;2023-05-19T06:10:51;102814.81;;;10.45;100.00
5996;BME280;3026;53.612;7.278;2023-05-19T06:13:18;102823.13;;;10.55;100.00
5996;BME280;3026;53.612;7.278;2023-05-19T06:15:48;102807.97;;;10.62;100.00
5996;BME280;3026;53.612;7.278;2023-05-19T06:18:15;102813.28;;;10.75;100.00
5996;BME280;3026;53.612;7.278;2023-05-19T06:20:43;102817.00;;;10.85;100.00
5996;BME280;3026;53.612;7.278;2023-05-19T06:23:10;102815.53;;;10.92;100.00
5996;BME280;3026;53.612;7.278;2023-05-19T06:25:37;102814.00;;;10.99;100.00
5996;BME280;3026;53.612;7.278;2023-05-19T06:28:04;102815.97;;;11.08;100.00
5996;BME280;3026;53.612;7.278;2023-05-19T06:30:31;102815.34;;;11.16;100.00
5996;BME280;3026;53.612;7.278;2023-05-19T06:32:58;102810.72;;;11.28;100.00
5996;BME280;3026;53.612;7.278;2023-05-19T06:35:25;102815.13;;;11.40;100.00
5996;BME280;3026;53.612;7.278;2023-05-19T06:37:53;102822.56;;;11.49;100.00
5996;BME280;3026;53.612;7.278;2023-05-19T06:40:20;102827.97;;;11.60;100.00
5996;BME280;3026;53.612;7.278;2023-05-19T06:42:48;102823.44;;;11.71;100.00
5996;BME280;3026;53.612;7.278;2023-05-19T06:45:15;102821.66;;;11.81;100.00
5996;BME280;3026;53.612;7.278;2023-05-19T06:47:46;102821.59;;;11.92;100.00
5996;BME280;3026;53.612;7.278;2023-05-19T06:50:12;102819.06;;;12.00;100.00
5996;BME280;3026;53.612;7.278;2023-05-19T06:52:39;102818.72;;;12.14;100.00
5996;BME280;3026;53.612;7.278;2023-05-19T06:55:08;102832.81;;;12.31;100.00
5996;BME280;3026;53.612;7.278;2023-05-19T06:57:35;102821.16;;;12.38;100.00
5996;BME280;3026;53.612;7.278;2023-05-19T07:00:03;102831.75;;;12.52;100.00
5996;BME280;3026;53.612;7.278;2023-05-19T07:02:31;102824.00;;;12.57;100.00
5996;BME280;3026;53.612;7.278;2023-05-19T07:04:58;102828.06;;;12.63;100.00
5996;BME280;3026;53.612;7.278;2023-05-19T07:07:25;102826.19;;;12.73;100.00
5996;BME280;3026;53.612;7.278;2023-05-19T07:10:12;102828.13;;;12.82;100.00
5996;BME280;3026;53.612;7.278;2023-05-19T07:12:39;102823.81;;;12.90;100.00
5996;BME280;3026;53.612;7.278;2023-05-19T07:15:06;102821.53;;;12.95;100.00
5996;BME280;3026;53.612;7.278;2023-05-19T07:17:33;102835.09;;;13.06;100.00
5996;BME280;3026;53.612;7.278;2023-05-19T07:20:00;102836.50;;;13.21;100.00
5996;BME280;3026;53.612;7.278;2023-05-19T07:22:34;102834.88;;;13.28;100.00
5996;BME280;3026;53.612;7.278;2023-05-19T07:25:01;102836.50;;;13.40;100.00
5996;BME280;3026;53.612;7.278;2023-05-19T07:27:30;102825.13;;;13.55;100.00
5996;BME280;3026;53.612;7.278;2023-05-19T07:29:57;102828.84;;;13.73;100.00
5996;BME280;3026;53.612;7.278;2023-05-19T07:32:24;102827.38;;;13.88;100.00
5996;BME280;3026;53.612;7.278;2023-05-19T07:34:51;102826.97;;;14.02;100.00
5996;BME280;3026;53.612;7.278;2023-05-19T07:37:18;102813.78;;;14.16;100.00
5996;BME280;3026;53.612;7.278;2023-05-19T07:39:45;102826.16;;;14.29;100.00
5996;BME280;3026;53.612;7.278;2023-05-19T07:42:12;102826.00;;;14.50;100.00
5996;BME280;3026;53.612;7.278;2023-05-19T07:44:40;102825.88;;;14.70;100.00
5996;BME280;3026;53.612;7.278;2023-05-19T07:47:07;102830.63;;;14.77;100.00
5996;BME280;3026;53.612;7.278;2023-05-19T07:49:34;102823.38;;;14.86;100.00
5996;BME280;3026;53.612;7.278;2023-05-19T07:52:00;102822.16;;;14.98;100.00
5996;BME280;3026;53.612;7.278;2023-05-19T07:54:27;102819.78;;;15.03;100.00
5996;BME280;3026;53.612;7.278;2023-05-19T07:56:54;102823.56;;;15.02;100.00
5996;BME280;3026;53.612;7.278;2023-05-19T07:59:21;102824.47;;;14.93;100.00
5996;BME280;3026;53.612;7.278;2023-05-19T08:01:50;102814.28;;;15.03;100.00
5996;BME280;3026;53.612;7.278;2023-05-19T08:04:16;102819.19;;;15.09;100.00
5996;BME280;3026;53.612;7.278;2023-05-19T08:06:43;102808.56;;;15.14;100.00
5996;BME280;3026;53.612;7.278;2023-05-19T08:09:10;102812.75;;;15.18;100.00
5996;BME280;3026;53.612;7.278;2023-05-19T08:11:37;102808.69;;;15.23;100.00
5996;BME280;3026;53.612;7.278;2023-05-19T08:14:04;102808.34;;;15.26;100.00
5996;BME280;3026;53.612;7.278;2023-05-19T08:16:31;102804.28;;;15.30;100.00
5996;BME280;3026;53.612;7.278;2023-05-19T08:18:59;102823.00;;;15.44;100.00
5996;BME280;3026;53.612;7.278;2023-05-19T08:21:28;102807.53;;;15.61;100.00
5996;BME280;3026;53.612;7.278;2023-05-19T08:23:55;102810.59;;;15.75;100.00
5996;BME280;3026;53.612;7.278;2023-05-19T08:26:22;102800.84;;;15.81;100.00
5996;BME280;3026;53.612;7.278;2023-05-19T08:28:49;102802.84;;;15.97;100.00
5996;BME280;3026;53.612;7.278;2023-05-19T08:31:16;102798.16;;;16.15;100.00
5996;BME280;3026;53.612;7.278;2023-05-19T08:33:43;102802.88;;;16.23;100.00
5996;BME280;3026;53.612;7.278;2023-05-19T08:36:11;102806.50;;;16.31;100.00
5996;BME280;3026;53.612;7.278;2023-05-19T08:38:38;102800.47;;;16.28;100.00
5996;BME280;3026;53.612;7.278;2023-05-19T08:41:05;102799.28;;;16.30;100.00
5996;BME280;3026;53.612;7.278;2023-05-19T08:43:32;102800.69;;;16.34;100.00
5996;BME280;3026;53.612;7.278;2023-05-19T08:45:59;102803.06;;;16.29;99.36
5996;BME280;3026;53.612;7.278;2023-05-19T08:48:28;102798.97;;;16.33;98.55
5996;BME280;3026;53.612;7.278;2023-05-19T08:51:03;102801.13;;;16.48;99.01
5996;BME280;3026;53.612;7.278;2023-05-19T08:53:36;102790.25;;;16.72;98.32
5996;BME280;3026;53.612;7.278;2023-05-19T08:56:10;102792.75;;;16.91;98.05
5996;BME280;3026;53.612;7.278;2023-05-19T08:58:40;102778.91;;;16.83;96.29
5996;BME280;3026;53.612;7.278;2023-05-19T09:01:08;102792.00;;;16.89;94.86
5996;BME280;3026;53.612;7.278;2023-05-19T09:03:36;102782.75;;;16.99;92.88
5996;BME280;3026;53.612;7.278;2023-05-19T09:06:05;102782.09;;;17.05;92.79
5996;BME280;3026;53.612;7.278;2023-05-19T09:08:33;102784.53;;;17.16;93.04
5996;BME280;3026;53.612;7.278;2023-05-19T09:11:01;102771.09;;;17.29;92.24
5996;BME280;3026;53.612;7.278;2023-05-19T09:13:28;102765.25;;;17.32;91.44
5996;BME280;3026;53.612;7.278;2023-05-19T09:16:01;102774.56;;;17.39;90.34
5996;BME280;3026;53.612;7.278;2023-05-19T09:18:32;102773.88;;;17.45;88.75
5996;BME280;3026;53.612;7.278;2023-05-19T09:21:00;102786.66;;;17.63;88.26
5996;BME280;3026;53.612;7.278;2023-05-19T09:23:28;102774.25;;;17.50;87.29
5996;BME280;3026;53.612;7.278;2023-05-19T09:25:55;102779.22;;;17.55;87.43
5996;BME280;3026;53.612;7.278;2023-05-19T09:28:24;102780.09;;;17.56;86.86
5996;BME280;3026;53.612;7.278;2023-05-19T09:30:59;102778.72;;;17.60;86.46
5996;BME280;3026;53.612;7.278;2023-05-19T09:33:26;102776.31;;;17.89;86.92
5996;BME280;3026;53.612;7.278;2023-05-19T09:35:53;102764.25;;;17.98;85.93
5996;BME280;3026;53.612;7.278;2023-05-19T09:38:22;102761.13;;;17.93;86.36
5996;BME280;3026;53.612;7.278;2023-05-19T09:40:49;102769.91;;;18.05;85.58
5996;BME280;3026;53.612;7.278;2023-05-19T09:43:17;102769.03;;;18.04;85.07
5996;BME280;3026;53.612;7.278;2023-05-19T09:45:45;102758.84;;;18.13;84.01
5996;BME280;3026;53.612;7.278;2023-05-19T09:48:14;102762.09;;;18.33;84.05
5996;BME280;3026;53.612;7.278;2023-05-19T09:50:42;102765.47;;;18.51;83.46
5996;BME280;3026;53.612;7.278;2023-05-19T09:53:12;102752.28;;;18.78;83.09
5996;BME280;3026;53.612;7.278;2023-05-19T09:55:39;102761.09;;;19.04;85.24
5996;BME280;3026;53.612;7.278;2023-05-19T09:58:07;102750.06;;;19.27;85.96
5996;BME280;3026;53.612;7.278;2023-05-19T10:00:34;102758.22;;;19.20;84.17
5996;BME280;3026;53.612;7.278;2023-05-19T10:03:03;102751.28;;;19.24;82.15
5996;BME280;3026;53.612;7.278;2023-05-19T10:05:31;102747.97;;;19.29;83.04
5996;BME280;3026;53.612;7.278;2023-05-19T10:07:59;102758.16;;;19.29;84.42
5996;BME280;3026;53.612;7.278;2023-05-19T10:10:27;102746.47;;;19.18;86.01
5996;BME280;3026;53.612;7.278;2023-05-19T10:12:55;102752.13;;;19.02;87.03
5996;BME280;3026;53.612;7.278;2023-05-19T10:15:25;102751.88;;;18.89;88.26
5996;BME280;3026;53.612;7.278;2023-05-19T10:17:53;102745.97;;;18.92;89.73
5996;BME280;3026;53.612;7.278;2023-05-19T10:20:22;102750.00;;;19.12;90.85
5996;BME280;3026;53.612;7.278;2023-05-19T10:22:49;102736.84;;;19.37;91.03
5996;BME280;3026;53.612;7.278;2023-05-19T10:25:16;102733.31;;;19.43;90.34
5996;BME280;3026;53.612;7.278;2023-05-19T10:27:50;102728.09;;;19.48;90.32
5996;BME280;3026;53.612;7.278;2023-05-19T10:30:27;102717.88;;;19.57;92.04
5996;BME280;3026;53.612;7.278;2023-05-19T10:33:06;102726.19;;;19.72;91.49
5996;BME280;3026;53.612;7.278;2023-05-19T10:38:55;102720.75;;;19.78;89.41
5996;BME280;3026;53.612;7.278;2023-05-19T10:41:27;102724.34;;;19.64;90.03
5996;BME280;3026;53.612;7.278;2023-05-19T10:44:03;102722.75;;;19.47;91.06
5996;BME280;3026;53.612;7.278;2023-05-19T10:46:33;102718.78;;;19.27;91.31
5996;BME280;3026;53.612;7.278;2023-05-19T10:49:00;102720.19;;;19.22;93.08
5996;BME280;3026;53.612;7.278;2023-05-19T10:51:29;102718.19;;;19.54;92.99
5996;BME280;3026;53.612;7.278;2023-05-19T10:53:57;102729.63;;;19.51;93.35
5996;BME280;3026;53.612;7.278;2023-05-19T10:56:28;102726.47;;;19.62;93.00
5996;BME280;3026;53.612;7.278;2023-05-19T10:58:57;102727.69;;;19.60;92.56
5996;BME280;3026;53.612;7.278;2023-05-19T11:01:29;102720.53;;;19.65;94.17
5996;BME280;3026;53.612;7.278;2023-05-19T11:04:03;102727.53;;;19.76;94.53
5996;BME280;3026;53.612;7.278;2023-05-19T11:06:33;102731.09;;;19.85;93.36
5996;BME280;3026;53.612;7.278;2023-05-19T11:09:10;102728.00;;;19.79;92.82
5996;BME280;3026;53.612;7.278;2023-05-19T11:11:47;102726.59;;;19.69;92.62
5996;BME280;3026;53.612;7.278;2023-05-19T11:14:16;102728.09;;;19.71;93.85
5996;BME280;3026;53.612;7.278;2023-05-19T11:16:45;102713.59;;;19.69;93.76
5996;BME280;3026;53.612;7.278;2023-05-19T11:19:24;102719.41;;;19.74;95.10
5996;BME280;3026;53.612;7.278;2023-05-19T11:21:53;102719.63;;;19.88;95.67
5996;BME280;3026;53.612;7.278;2023-05-19T11:24:34;102717.53;;;19.90;94.00
5996;BME280;3026;53.612;7.278;2023-05-19T11:27:21;102711.13;;;19.74;93.17
5996;BME280;3026;53.612;7.278;2023-05-19T11:29:50;102714.16;;;19.65;93.95
5996;BME280;3026;53.612;7.278;2023-05-19T11:32:19;102710.25;;;19.59;93.98
5996;BME280;3026;53.612;7.278;2023-05-19T11:34:47;102713.88;;;19.74;95.52
5996;BME280;3026;53.612;7.278;2023-05-19T11:37:16;102701.50;;;20.00;95.37
5996;BME280;3026;53.612;7.278;2023-05-19T11:39:44;102702.47;;;20.07;94.92
5996;BME280;3026;53.612;7.278;2023-05-19T11:42:11;102707.34;;;20.20;94.98
5996;BME280;3026;53.612;7.278;2023-05-19T11:44:38;102710.97;;;20.20;94.45
5996;BME280;3026;53.612;7.278;2023-05-19T11:47:07;102712.09;;;20.11;94.08
5996;BME280;3026;53.612;7.278;2023-05-19T11:49:34;102714.75;;;19.90;94.04
5996;BME280;3026;53.612;7.278;2023-05-19T11:52:02;102710.06;;;19.75;94.63
5996;BME280;3026;53.612;7.278;2023-05-19T11:54:31;102709.41;;;19.73;95.83
5996;BME280;3026;53.612;7.278;2023-05-19T11:57:01;102714.09;;;19.88;95.24
5996;BME280;3026;53.612;7.278;2023-05-19T11:59:29;102713.72;;;19.91;95.07
5996;BME280;3026;53.612;7.278;2023-05-19T12:02:00;102717.72;;;19.88;94.80
5996;BME280;3026;53.612;7.278;2023-05-19T12:04:28;102716.06;;;19.79;94.25
5996;BME280;3026;53.612;7.278;2023-05-19T12:06:54;102716.00;;;19.72;94.21
5996;BME280;3026;53.612;7.278;2023-05-19T12:09:21;102720.19;;;19.68;93.81
5996;BME280;3026;53.612;7.278;2023-05-19T12:11:51;102717.91;;;19.72;94.15
5996;BME280;3026;53.612;7.278;2023-05-19T12:14:18;102719.88;;;19.63;92.94
5996;BME280;3026;53.612;7.278;2023-05-19T12:16:45;102708.53;;;19.58;92.57
5996;BME280;3026;53.612;7.278;2023-05-19T12:19:11;102720.91;;;19.62;92.03
5996;BME280;3026;53.612;7.278;2023-05-19T12:21:38;102715.25;;;19.56;91.45
5996;BME280;3026;53.612;7.278;2023-05-19T12:24:05;102707.50;;;19.51;90.81
5996;BME280;3026;53.612;7.278;2023-05-19T12:26:34;102702.81;;;19.51;90.33
5996;BME280;3026;53.612;7.278;2023-05-19T12:29:03;102694.34;;;19.53;90.89
5996;BME280;3026;53.612;7.278;2023-05-19T12:31:31;102698.06;;;19.68;91.22
5996;BME280;3026;53.612;7.278;2023-05-19T12:33:59;102708.94;;;19.70;90.30
5996;BME280;3026;53.612;7.278;2023-05-19T12:36:27;102702.44;;;19.54;89.31
5996;BME280;3026;53.612;7.278;2023-05-19T12:38:55;102704.91;;;19.49;89.18
5996;BME280;3026;53.612;7.278;2023-05-19T12:41:23;102703.84;;;19.36;88.64
5996;BME280;3026;53.612;7.278;2023-05-19T12:43:52;102708.38;;;19.29;89.42
5996;BME280;3026;53.612;7.278;2023-05-19T12:46:21;102705.41;;;19.30;90.01
5996;BME280;3026;53.612;7.278;2023-05-19T12:48:48;102704.94;;;19.27;90.27
5996;BME280;3026;53.612;7.278;2023-05-19T12:51:15;102709.84;;;19.16;89.96
5996;BME280;3026;53.612;7.278;2023-05-19T12:53:43;102708.56;;;19.04;90.01
5996;BME280;3026;53.612;7.278;2023-05-19T12:56:10;102692.03;;;18.96;90.81
5996;BME280;3026;53.612;7.278;2023-05-19T12:58:38;102710.25;;;19.13;91.96
5996;BME280;3026;53.612;7.278;2023-05-19T13:01:05;102711.63;;;19.09;91.79
5996;BME280;3026;53.612;7.278;2023-05-19T13:03:39;102701.63;;;19.08;91.59
5996;BME280;3026;53.612;7.278;2023-05-19T13:06:07;102696.47;;;19.05;91.86
5996;BME280;3026;53.612;7.278;2023-05-19T13:08:36;102703.00;;;19.12;92.76
5996;BME280;3026;53.612;7.278;2023-05-19T13:11:04;102700.50;;;19.17;92.67
5996;BME280;3026;53.612;7.278;2023-05-19T13:13:31;102700.88;;;19.14;91.66
5996;BME280;3026;53.612;7.278;2023-05-19T13:15:58;102697.47;;;19.12;91.48
5996;BME280;3026;53.612;7.278;2023-05-19T13:18:25;102688.50;;;19.10;91.38
5996;BME280;3026;53.612;7.278;2023-05-19T13:20:53;102680.19;;;19.10;91.14